sensor_id;sensor_type;location;lat;lon;timestamp;pressure;altitude;pressure_sealevel;temperature;humidity
18819;BME280;9537;45.594;9.294;2023-02-15T00:00:43;101066.06;;;3.20;71.60
18819;BME280;9537;45.594;9.294;2023-02-15T00:01:46;101072.50;;;3.14;72.44
18819;BME280;9537;45.594;9.294;2023-02-15T00:02:50;101065.25;;;3.20;72.47
18819;BME280;9537;45.594;9.294;2023-02-15T00:03:51;101062.75;;;3.18;72.39
18819;BME280;9537;45.594;9.294;2023-02-15T00:04:53;101063.56;;;3.19;71.96
18819;BME280;9537;45.594;9.294;2023-02-15T00:05:56;101062.63;;;3.20;72.14
18819;BME280;9537;45.594;9.294;2023-02-15T00:06:58;101063.56;;;3.19;72.82
18819;BME280;9537;45.594;9.294;2023-02-15T00:07:59;101061.97;;;3.16;72.44
18819;BME280;9537;45.594;9.294;2023-02-15T00:09:02;101064.47;;;3.17;72.52
18819;BME280;9537;45.594;9.294;2023-02-15T00:10:04;101060.78;;;3.22;72.53
18819;BME280;9537;45.594;9.294;2023-02-15T00:11:07;101063.28;;;3.23;72.06
18819;BME280;9537;45.594;9.294;2023-02-15T00:12:08;101067.59;;;3.24;72.57
18819;BME280;9537;45.594;9.294;2023-02-15T00:13:11;101060.66;;;3.23;72.63
18819;BME280;9537;45.594;9.294;2023-02-15T00:14:14;101067.47;;;3.26;72.58
18819;BME280;9537;45.594;9.294;2023-02-15T00:15:16;101061.34;;;3.27;72.05
18819;BME280;9537;45.594;9.294;2023-02-15T00:16:17;101066.56;;;3.27;72.22
18819;BME280;9537;45.594;9.294;2023-02-15T00:17:20;101063.84;;;3.28;71.90
18819;BME280;9537;45.594;9.294;2023-02-15T00:18:21;101063.03;;;3.28;71.91
18819;BME280;9537;45.594;9.294;2023-02-15T00:19:23;101061.34;;;3.27;72.05
18819;BME280;9537;45.594;9.294;2023-02-15T00:20:24;101056.03;;;3.28;71.22
18819;BME280;9537;45.594;9.294;2023-02-15T00:21:27;101058.91;;;3.24;71.36
18819;BME280;9537;45.594;9.294;2023-02-15T00:22:29;101058.44;;;3.17;71.66
18819;BME280;9537;45.594;9.294;2023-02-15T00:23:31;101067.28;;;3.14;71.28
18819;BME280;9537;45.594;9.294;2023-02-15T00:24:32;101060.50;;;3.12;71.31
18819;BME280;9537;45.594;9.294;2023-02-15T00:25:34;101065.97;;;3.07;72.00
18819;BME280;9537;45.594;9.294;2023-02-15T00:26:37;101059.09;;;3.06;72.15
18819;BME280;9537;45.594;9.294;2023-02-15T00:27:39;101061.94;;;3.02;71.94
18819;BME280;9537;45.594;9.294;2023-02-15T00:28:40;101061.00;;;3.03;71.78
18819;BME280;9537;45.594;9.294;2023-02-15T00:29:42;101072.13;;;3.06;71.68
18819;BME280;9537;45.594;9.294;2023-02-15T00:30:43;101073.81;;;3.07;72.39
18819;BME280;9537;45.594;9.294;2023-02-15T00:31:45;101073.16;;;3.04;72.49
18819;BME280;9537;45.594;9.294;2023-02-15T00:32:48;101072.28;;;3.03;72.21
18819;BME280;9537;45.594;9.294;2023-02-15T00:33:50;101067.81;;;3.05;72.39
18819;BME280;9537;45.594;9.294;2023-02-15T00:34:51;101068.66;;;3.06;72.34
18819;BME280;9537;45.594;9.294;2023-02-15T00:35:56;101065.03;;;3.08;72.41
18819;BME280;9537;45.594;9.294;2023-02-15T00:36:57;101065.97;;;3.07;71.73
18819;BME280;9537;45.594;9.294;2023-02-15T00:37:59;101065.97;;;3.07;72.34
18819;BME280;9537;45.594;9.294;2023-02-15T00:39:00;101064.44;;;3.03;72.62
18819;BME280;9537;45.594;9.294;2023-02-15T00:40:03;101066.91;;;3.06;72.99
18819;BME280;9537;45.594;9.294;2023-02-15T00:41:05;101071.19;;;3.07;72.43
18819;BME280;9537;45.594;9.294;2023-02-15T00:42:07;101067.00;;;3.05;72.83
18819;BME280;9537;45.594;9.294;2023-02-15T00:43:08;101063.63;;;3.03;72.12
18819;BME280;9537;45.594;9.294;2023-02-15T00:44:10;101067.94;;;3.04;71.89
18819;BME280;9537;45.594;9.294;2023-02-15T00:45:12;101074.25;;;3.00;71.63
18819;BME280;9537;45.594;9.294;2023-02-15T00:46:14;101070.22;;;2.94;72.29
18819;BME280;9537;45.594;9.294;2023-02-15T00:47:15;101065.19;;;2.91;72.36
18819;BME280;9537;45.594;9.294;2023-02-15T00:48:19;101066.00;;;2.91;71.67
18819;BME280;9537;45.594;9.294;2023-02-15T00:49:20;101057.47;;;2.89;72.28
18819;BME280;9537;45.594;9.294;2023-02-15T00:50:22;101062.75;;;2.88;71.83
18819;BME280;9537;45.594;9.294;2023-02-15T00:51:23;101068.91;;;2.87;72.14
18819;BME280;9537;45.594;9.294;2023-02-15T00:52:25;101062.16;;;2.83;71.75
18819;BME280;9537;45.594;9.294;2023-02-15T00:53:27;101069.75;;;2.87;71.73
18819;BME280;9537;45.594;9.294;2023-02-15T00:54:29;101064.78;;;2.83;72.29
18819;BME280;9537;45.594;9.294;2023-02-15T00:55:30;101064.97;;;2.80;72.51
18819;BME280;9537;45.594;9.294;2023-02-15T00:56:32;101057.66;;;2.70;72.39
18819;BME280;9537;45.594;9.294;2023-02-15T00:57:33;101058.69;;;2.68;72.62
18819;BME280;9537;45.594;9.294;2023-02-15T00:58:35;101066.25;;;2.73;72.89
18819;BME280;9537;45.594;9.294;2023-02-15T00:59:36;101060.69;;;2.63;72.91
18819;BME280;9537;45.594;9.294;2023-02-15T01:00:39;101064.31;;;2.60;73.67
18819;BME280;9537;45.594;9.294;2023-02-15T01:01:41;101066.28;;;2.57;73.65
18819;BME280;9537;45.594;9.294;2023-02-15T01:02:43;101061.06;;;2.57;74.30
18819;BME280;9537;45.594;9.294;2023-02-15T01:03:46;101064.44;;;2.59;73.71
18819;BME280;9537;45.594;9.294;2023-02-15T01:04:48;101070.31;;;2.62;73.49
18819;BME280;9537;45.594;9.294;2023-02-15T01:05:49;101065.09;;;2.62;73.90
18819;BME280;9537;45.594;9.294;2023-02-15T01:06:51;101064.06;;;2.65;73.20
18819;BME280;9537;45.594;9.294;2023-02-15T01:07:52;101067.63;;;2.64;73.91
18819;BME280;9537;45.594;9.294;2023-02-15T01:08:54;101065.25;;;2.59;74.04
18819;BME280;9537;45.594;9.294;2023-02-15T01:09:55;101064.25;;;2.62;74.17
18819;BME280;9537;45.594;9.294;2023-02-15T01:10:57;101062.28;;;2.65;73.72
18819;BME280;9537;45.594;9.294;2023-02-15T01:12:03;101069.41;;;2.63;73.31
18819;BME280;9537;45.594;9.294;2023-02-15T01:13:06;101068.44;;;2.64;73.98
18819;BME280;9537;45.594;9.294;2023-02-15T01:14:07;101067.50;;;2.65;73.69
18819;BME280;9537;45.594;9.294;2023-02-15T01:15:09;101062.56;;;2.61;73.66
18819;BME280;9537;45.594;9.294;2023-02-15T01:16:10;101065.38;;;2.58;73.47
18819;BME280;9537;45.594;9.294;2023-02-15T01:17:12;101067.97;;;2.58;73.95
18819;BME280;9537;45.594;9.294;2023-02-15T01:18:14;101064.25;;;2.62;73.75
18819;BME280;9537;45.594;9.294;2023-02-15T01:19:18;101067.44;;;2.67;73.75
18819;BME280;9537;45.594;9.294;2023-02-15T01:20:20;101070.88;;;2.67;73.94
18819;BME280;9537;45.594;9.294;2023-02-15T01:21:24;101065.59;;;2.69;74.01
18819;BME280;9537;45.594;9.294;2023-02-15T01:22:25;101061.94;;;2.71;74.09
18819;BME280;9537;45.594;9.294;2023-02-15T01:23:27;101061.88;;;2.73;74.24
18819;BME280;9537;45.594;9.294;2023-02-15T01:24:28;101065.31;;;2.74;74.28
18819;BME280;9537;45.594;9.294;2023-02-15T01:25:30;101063.47;;;2.76;73.58
18819;BME280;9537;45.594;9.294;2023-02-15T01:26:31;101061.75;;;2.75;74.08
18819;BME280;9537;45.594;9.294;2023-02-15T01:27:33;101054.63;;;2.78;73.18
18819;BME280;9537;45.594;9.294;2023-02-15T01:28:34;101052.84;;;2.79;73.28
18819;BME280;9537;45.594;9.294;2023-02-15T01:29:37;101057.13;;;2.80;73.31
18819;BME280;9537;45.594;9.294;2023-02-15T01:30:38;101046.78;;;2.78;73.35
18819;BME280;9537;45.594;9.294;2023-02-15T01:31:39;101049.00;;;2.70;73.21
18819;BME280;9537;45.594;9.294;2023-02-15T01:32:41;101048.25;;;2.68;73.10
18819;BME280;9537;45.594;9.294;2023-02-15T01:33:44;101060.44;;;2.67;72.88
18819;BME280;9537;45.594;9.294;2023-02-15T01:34:46;101055.31;;;2.66;73.04
18819;BME280;9537;45.594;9.294;2023-02-15T01:35:48;101054.75;;;2.61;73.51
18819;BME280;9537;45.594;9.294;2023-02-15T01:36:49;101052.03;;;2.62;73.58
18819;BME280;9537;45.594;9.294;2023-02-15T01:37:51;101062.41;;;2.64;73.45
18819;BME280;9537;45.594;9.294;2023-02-15T01:38:52;101061.16;;;2.55;72.93
18819;BME280;9537;45.594;9.294;2023-02-15T01:39:54;101059.56;;;2.53;73.79
18819;BME280;9537;45.594;9.294;2023-02-15T01:40:55;101055.44;;;2.48;73.33
18819;BME280;9537;45.594;9.294;2023-02-15T01:42:21;101053.69;;;2.49;73.96
18819;BME280;9537;45.594;9.294;2023-02-15T01:43:39;101048.28;;;2.52;74.43
18819;BME280;9537;45.594;9.294;2023-02-15T01:44:52;101055.66;;;2.60;73.75
18819;BME280;9537;45.594;9.294;2023-02-15T01:45:54;101055.66;;;2.60;73.78
18819;BME280;9537;45.594;9.294;2023-02-15T01:46:56;101047.84;;;2.60;73.88
18819;BME280;9537;45.594;9.294;2023-02-15T01:47:59;101051.28;;;2.60;74.38
18819;BME280;9537;45.594;9.294;2023-02-15T01:49:10;101046.94;;;2.61;74.42
18819;BME280;9537;45.594;9.294;2023-02-15T01:50:16;101051.13;;;2.63;73.82
18819;BME280;9537;45.594;9.294;2023-02-15T01:51:21;101041.59;;;2.62;74.09
18819;BME280;9537;45.594;9.294;2023-02-15T01:52:25;101046.94;;;2.61;73.48
18819;BME280;9537;45.594;9.294;2023-02-15T01:53:32;101046.06;;;2.60;73.60
18819;BME280;9537;45.594;9.294;2023-02-15T01:54:36;101041.88;;;2.58;73.64
18819;BME280;9537;45.594;9.294;2023-02-15T01:55:45;101042.13;;;2.53;73.02
18819;BME280;9537;45.594;9.294;2023-02-15T01:56:48;101039.13;;;2.45;73.70
18819;BME280;9537;45.594;9.294;2023-02-15T01:57:50;101044.34;;;2.45;73.52
18819;BME280;9537;45.594;9.294;2023-02-15T01:58:53;101045.53;;;2.39;73.78
18819;BME280;9537;45.594;9.294;2023-02-15T02:00:00;101040.59;;;2.35;74.14
18819;BME280;9537;45.594;9.294;2023-02-15T02:01:04;101036.94;;;2.37;74.61
18819;BME280;9537;45.594;9.294;2023-02-15T02:02:11;101043.75;;;2.40;74.27
18819;BME280;9537;45.594;9.294;2023-02-15T02:03:14;101042.75;;;2.42;75.02
18819;BME280;9537;45.594;9.294;2023-02-15T02:04:20;101040.13;;;2.42;73.97
18819;BME280;9537;45.594;9.294;2023-02-15T02:05:26;101040.13;;;2.42;73.91
18819;BME280;9537;45.594;9.294;2023-02-15T02:06:28;101039.22;;;2.43;74.09
18819;BME280;9537;45.594;9.294;2023-02-15T02:07:32;101036.75;;;2.40;73.91
18819;BME280;9537;45.594;9.294;2023-02-15T02:08:35;101032.84;;;2.33;74.28
18819;BME280;9537;45.594;9.294;2023-02-15T02:09:36;101031.66;;;2.23;74.69
18819;BME280;9537;45.594;9.294;2023-02-15T02:10:38;101032.59;;;2.22;74.32
18819;BME280;9537;45.594;9.294;2023-02-15T02:11:40;101028.72;;;2.13;74.42
18819;BME280;9537;45.594;9.294;2023-02-15T02:12:45;101025.78;;;2.19;74.13
18819;BME280;9537;45.594;9.294;2023-02-15T02:13:46;101020.50;;;2.21;75.00
18819;BME280;9537;45.594;9.294;2023-02-15T02:14:49;101028.50;;;2.18;74.47
18819;BME280;9537;45.594;9.294;2023-02-15T02:15:55;101028.06;;;2.10;75.08
18819;BME280;9537;45.594;9.294;2023-02-15T02:17:06;101029.56;;;2.14;75.25
18819;BME280;9537;45.594;9.294;2023-02-15T02:18:21;101027.91;;;2.13;75.41
18819;BME280;9537;45.594;9.294;2023-02-15T02:20:06;101019.91;;;2.16;74.69
18819;BME280;9537;45.594;9.294;2023-02-15T02:21:44;101035.88;;;2.10;75.10
18819;BME280;9537;45.594;9.294;2023-02-15T02:25:03;101025.88;;;2.18;75.67
18819;BME280;9537;45.594;9.294;2023-02-15T02:26:42;101023.16;;;2.19;74.85
18819;BME280;9537;45.594;9.294;2023-02-15T02:27:56;101015.44;;;2.18;75.31
18819;BME280;9537;45.594;9.294;2023-02-15T02:29:30;101021.69;;;2.15;75.52
18819;BME280;9537;45.594;9.294;2023-02-15T02:31:11;101022.41;;;2.17;74.48
18819;BME280;9537;45.594;9.294;2023-02-15T02:33:54;101024.44;;;2.12;75.07
18819;BME280;9537;45.594;9.294;2023-02-15T02:35:01;101030.84;;;2.07;75.39
18819;BME280;9537;45.594;9.294;2023-02-15T02:36:15;101033.19;;;2.11;75.11
18819;BME280;9537;45.594;9.294;2023-02-15T02:37:23;101028.13;;;2.08;75.14
18819;BME280;9537;45.594;9.294;2023-02-15T02:38:32;101023.03;;;2.07;74.18
18819;BME280;9537;45.594;9.294;2023-02-15T02:39:40;101026.47;;;2.07;74.58
18819;BME280;9537;45.594;9.294;2023-02-15T02:40:52;101033.44;;;2.07;74.26
18819;BME280;9537;45.594;9.294;2023-02-15T02:42:01;101030.84;;;2.07;73.89
18819;BME280;9537;45.594;9.294;2023-02-15T02:43:10;101030.69;;;2.10;74.56
18819;BME280;9537;45.594;9.294;2023-02-15T02:44:16;101028.25;;;2.07;75.14
18819;BME280;9537;45.594;9.294;2023-02-15T02:45:23;101031.50;;;2.10;74.52
18819;BME280;9537;45.594;9.294;2023-02-15T02:46:31;101028.72;;;2.13;74.90
18819;BME280;9537;45.594;9.294;2023-02-15T02:47:38;101024.53;;;2.11;75.10
18819;BME280;9537;45.594;9.294;2023-02-15T02:48:41;101030.00;;;2.06;74.95
18819;BME280;9537;45.594;9.294;2023-02-15T02:49:44;101024.94;;;2.03;75.33
18819;BME280;9537;45.594;9.294;2023-02-15T02:50:46;101031.00;;;2.03;74.85
18819;BME280;9537;45.594;9.294;2023-02-15T02:51:57;101032.94;;;2.00;75.21
18819;BME280;9537;45.594;9.294;2023-02-15T02:52:59;101022.94;;;1.92;75.59
18819;BME280;9537;45.594;9.294;2023-02-15T02:54:04;101027.16;;;1.95;75.36
18819;BME280;9537;45.594;9.294;2023-02-15T02:55:11;101026.97;;;1.98;75.10
18819;BME280;9537;45.594;9.294;2023-02-15T02:56:21;101024.28;;;1.99;75.73
18819;BME280;9537;45.594;9.294;2023-02-15T02:57:26;101019.00;;;2.01;76.06
18819;BME280;9537;45.594;9.294;2023-02-15T02:58:31;101020.00;;;1.98;76.12
18819;BME280;9537;45.594;9.294;2023-02-15T02:59:41;101019.00;;;2.01;76.17
18819;BME280;9537;45.594;9.294;2023-02-15T03:00:46;101016.38;;;2.01;75.86
18819;BME280;9537;45.594;9.294;2023-02-15T03:01:53;101017.28;;;2.00;76.00
18819;BME280;9537;45.594;9.294;2023-02-15T03:03:00;101015.38;;;2.03;75.84
18819;BME280;9537;45.594;9.294;2023-02-15T03:04:07;101004.97;;;2.03;76.50
18819;BME280;9537;45.594;9.294;2023-02-15T03:05:15;101016.22;;;2.04;76.29
18819;BME280;9537;45.594;9.294;2023-02-15T03:06:21;101012.78;;;2.03;76.74
18819;BME280;9537;45.594;9.294;2023-02-15T03:07:28;101017.88;;;2.05;75.95
18819;BME280;9537;45.594;9.294;2023-02-15T03:08:32;101012.00;;;2.01;75.52
18819;BME280;9537;45.594;9.294;2023-02-15T03:09:39;101016.22;;;2.04;75.65
18819;BME280;9537;45.594;9.294;2023-02-15T03:10:42;101014.50;;;2.03;76.39
18819;BME280;9537;45.594;9.294;2023-02-15T03:11:44;101016.38;;;2.01;75.70
18819;BME280;9537;45.594;9.294;2023-02-15T03:12:45;101010.41;;;1.99;75.55
18819;BME280;9537;45.594;9.294;2023-02-15T03:13:49;101016.63;;;1.96;75.60
18819;BME280;9537;45.594;9.294;2023-02-15T03:14:51;101003.59;;;1.96;75.61
18819;BME280;9537;45.594;9.294;2023-02-15T03:15:56;101004.25;;;2.00;75.50
18819;BME280;9537;45.594;9.294;2023-02-15T03:17:17;101005.19;;;1.99;75.08
18819;BME280;9537;45.594;9.294;2023-02-15T03:18:22;101003.25;;;2.02;75.23
18819;BME280;9537;45.594;9.294;2023-02-15T03:19:29;101005.25;;;1.97;75.13
18819;BME280;9537;45.594;9.294;2023-02-15T03:20:35;101002.75;;;1.96;75.81
18819;BME280;9537;45.594;9.294;2023-02-15T03:21:41;101005.44;;;1.94;76.37
18819;BME280;9537;45.594;9.294;2023-02-15T03:22:47;101003.59;;;1.96;75.33
18819;BME280;9537;45.594;9.294;2023-02-15T03:23:52;100997.31;;;2.00;75.23
18819;BME280;9537;45.594;9.294;2023-02-15T03:24:58;101003.44;;;1.99;75.40
18819;BME280;9537;45.594;9.294;2023-02-15T03:26:02;101003.34;;;2.01;75.39
18819;BME280;9537;45.594;9.294;2023-02-15T03:27:07;101001.47;;;2.03;75.75
18819;BME280;9537;45.594;9.294;2023-02-15T03:28:13;100996.38;;;2.01;75.51
18819;BME280;9537;45.594;9.294;2023-02-15T03:29:17;100996.53;;;1.98;75.56
18819;BME280;9537;45.594;9.294;2023-02-15T03:30:21;100998.16;;;2.01;75.83
18819;BME280;9537;45.594;9.294;2023-02-15T03:31:26;101005.25;;;1.97;75.41
18819;BME280;9537;45.594;9.294;2023-02-15T03:32:31;101003.78;;;1.93;75.80
18819;BME280;9537;45.594;9.294;2023-02-15T03:33:35;100995.13;;;1.93;75.45
18819;BME280;9537;45.594;9.294;2023-02-15T03:34:37;101004.88;;;1.89;74.98
18819;BME280;9537;45.594;9.294;2023-02-15T03:35:44;100997.06;;;1.89;75.30
18819;BME280;9537;45.594;9.294;2023-02-15T03:36:53;100990.06;;;1.90;75.27
18819;BME280;9537;45.594;9.294;2023-02-15T03:37:59;100999.56;;;1.91;75.60
18819;BME280;9537;45.594;9.294;2023-02-15T03:39:07;100989.06;;;1.92;76.19
18819;BME280;9537;45.594;9.294;2023-02-15T03:40:15;100992.50;;;1.93;75.70
18819;BME280;9537;45.594;9.294;2023-02-15T03:41:41;100988.13;;;1.93;75.31
18819;BME280;9537;45.594;9.294;2023-02-15T03:42:49;100987.97;;;1.96;75.28
18819;BME280;9537;45.594;9.294;2023-02-15T03:43:53;100988.97;;;1.94;75.93
18819;BME280;9537;45.594;9.294;2023-02-15T03:45:02;100985.47;;;1.95;75.46
18819;BME280;9537;45.594;9.294;2023-02-15T03:46:07;100979.31;;;1.96;75.36
18819;BME280;9537;45.594;9.294;2023-02-15T03:47:13;100978.38;;;1.97;75.65
18819;BME280;9537;45.594;9.294;2023-02-15T03:48:17;100984.53;;;1.96;75.84
18819;BME280;9537;45.594;9.294;2023-02-15T03:49:22;100982.09;;;1.93;75.28
18819;BME280;9537;45.594;9.294;2023-02-15T03:50:29;100983.03;;;1.92;75.47
18819;BME280;9537;45.594;9.294;2023-02-15T03:51:51;100988.47;;;1.87;75.46
18819;BME280;9537;45.594;9.294;2023-02-15T03:52:57;100983.44;;;1.84;74.68
18819;BME280;9537;45.594;9.294;2023-02-15T03:54:02;100985.22;;;1.84;74.89
18819;BME280;9537;45.594;9.294;2023-02-15T03:55:05;100983.34;;;1.86;74.78
18819;BME280;9537;45.594;9.294;2023-02-15T03:56:06;100984.19;;;1.86;75.08
18819;BME280;9537;45.594;9.294;2023-02-15T03:57:10;100983.50;;;1.83;74.95
18819;BME280;9537;45.594;9.294;2023-02-15T03:58:30;100992.09;;;1.85;74.87
18819;BME280;9537;45.594;9.294;2023-02-15T03:59:49;100986.44;;;1.76;75.90
18819;BME280;9537;45.594;9.294;2023-02-15T04:01:13;100985.56;;;1.77;75.66
18819;BME280;9537;45.594;9.294;2023-02-15T04:02:38;100982.78;;;1.80;75.46
18819;BME280;9537;45.594;9.294;2023-02-15T04:03:44;100982.84;;;1.79;75.42
18819;BME280;9537;45.594;9.294;2023-02-15T04:04:47;100982.94;;;1.77;75.27
18819;BME280;9537;45.594;9.294;2023-02-15T04:05:49;100982.00;;;1.78;75.61
18819;BME280;9537;45.594;9.294;2023-02-15T04:06:52;100985.44;;;1.79;75.16
18819;BME280;9537;45.594;9.294;2023-02-15T04:07:54;100978.75;;;1.75;75.56
18819;BME280;9537;45.594;9.294;2023-02-15T04:08:55;100983.19;;;1.73;76.23
18819;BME280;9537;45.594;9.294;2023-02-15T04:10:15;100979.91;;;1.69;75.98
18819;BME280;9537;45.594;9.294;2023-02-15T04:11:34;100986.78;;;1.70;76.68
18819;BME280;9537;45.594;9.294;2023-02-15T04:12:36;100985.78;;;1.73;76.67
18819;BME280;9537;45.594;9.294;2023-02-15T04:13:37;100983.94;;;1.75;76.93
18819;BME280;9537;45.594;9.294;2023-02-15T04:14:39;100981.41;;;1.73;76.64
18819;BME280;9537;45.594;9.294;2023-02-15T04:15:59;100984.84;;;1.74;76.98
18819;BME280;9537;45.594;9.294;2023-02-15T04:17:06;100983.34;;;1.70;77.15
18819;BME280;9537;45.594;9.294;2023-02-15T04:18:08;100980.91;;;1.67;76.91
18819;BME280;9537;45.594;9.294;2023-02-15T04:19:10;100984.34;;;1.67;76.59
18819;BME280;9537;45.594;9.294;2023-02-15T04:20:29;100989.56;;;1.67;76.64
18819;BME280;9537;45.594;9.294;2023-02-15T04:21:49;100988.38;;;1.73;76.24
18819;BME280;9537;45.594;9.294;2023-02-15T04:23:09;100991.00;;;1.73;76.43
18819;BME280;9537;45.594;9.294;2023-02-15T04:24:29;100989.22;;;1.73;76.20
18819;BME280;9537;45.594;9.294;2023-02-15T04:25:48;100990.00;;;1.75;76.80
18819;BME280;9537;45.594;9.294;2023-02-15T04:26:50;100986.56;;;1.75;76.54
18819;BME280;9537;45.594;9.294;2023-02-15T04:27:54;100990.06;;;1.74;76.20
18819;BME280;9537;45.594;9.294;2023-02-15T04:28:56;100987.63;;;1.71;77.24
18819;BME280;9537;45.594;9.294;2023-02-15T04:29:57;100988.28;;;1.74;77.04
18819;BME280;9537;45.594;9.294;2023-02-15T04:30:59;100990.00;;;1.75;76.69
18819;BME280;9537;45.594;9.294;2023-02-15T04:32:00;100984.94;;;1.72;75.82
18819;BME280;9537;45.594;9.294;2023-02-15T04:33:02;100981.59;;;1.70;76.07
18819;BME280;9537;45.594;9.294;2023-02-15T04:34:03;100986.84;;;1.69;75.45
18819;BME280;9537;45.594;9.294;2023-02-15T04:35:06;100983.25;;;1.71;75.44
18819;BME280;9537;45.594;9.294;2023-02-15T04:36:07;100981.66;;;1.69;75.27
18819;BME280;9537;45.594;9.294;2023-02-15T04:37:09;100981.66;;;1.69;75.19
18819;BME280;9537;45.594;9.294;2023-02-15T04:38:13;100975.09;;;1.62;75.18
18819;BME280;9537;45.594;9.294;2023-02-15T04:39:15;100988.53;;;1.54;76.34
18819;BME280;9537;45.594;9.294;2023-02-15T04:40:17;100985.03;;;1.55;75.45
18819;BME280;9537;45.594;9.294;2023-02-15T04:41:18;100981.66;;;1.53;76.39
18819;BME280;9537;45.594;9.294;2023-02-15T04:42:20;100982.66;;;1.50;76.31
18819;BME280;9537;45.594;9.294;2023-02-15T04:43:21;100987.97;;;1.49;76.38
18819;BME280;9537;45.594;9.294;2023-02-15T04:44:23;100971.31;;;1.51;75.44
18819;BME280;9537;45.594;9.294;2023-02-15T04:45:24;100977.38;;;1.52;76.63
18819;BME280;9537;45.594;9.294;2023-02-15T04:46:27;100976.34;;;1.54;76.40
18819;BME280;9537;45.594;9.294;2023-02-15T04:47:28;100977.22;;;1.55;76.64
18819;BME280;9537;45.594;9.294;2023-02-15T04:48:30;100965.94;;;1.54;77.46
18819;BME280;9537;45.594;9.294;2023-02-15T04:49:31;100967.53;;;1.57;77.02
18819;BME280;9537;45.594;9.294;2023-02-15T04:50:33;100971.00;;;1.57;76.89
18819;BME280;9537;45.594;9.294;2023-02-15T04:51:34;100972.00;;;1.55;76.87
18819;BME280;9537;45.594;9.294;2023-02-15T04:52:36;100966.88;;;1.53;76.62
18819;BME280;9537;45.594;9.294;2023-02-15T04:53:38;100968.53;;;1.54;77.02
18819;BME280;9537;45.594;9.294;2023-02-15T04:54:40;100970.56;;;1.49;76.88
18819;BME280;9537;45.594;9.294;2023-02-15T04:55:41;100968.97;;;1.47;76.12
18819;BME280;9537;45.594;9.294;2023-02-15T04:56:43;100977.00;;;1.42;76.08
18819;BME280;9537;45.594;9.294;2023-02-15T04:57:45;100973.91;;;1.35;76.89
18819;BME280;9537;45.594;9.294;2023-02-15T04:58:47;100973.13;;;1.33;77.01
18819;BME280;9537;45.594;9.294;2023-02-15T04:59:48;100973.91;;;1.35;76.93
18819;BME280;9537;45.594;9.294;2023-02-15T05:00:54;100975.41;;;1.40;76.03
18819;BME280;9537;45.594;9.294;2023-02-15T05:01:56;100968.97;;;1.47;76.09
18819;BME280;9537;45.594;9.294;2023-02-15T05:02:58;100969.88;;;1.46;76.88
18819;BME280;9537;45.594;9.294;2023-02-15T05:03:59;100963.22;;;1.40;76.31
18819;BME280;9537;45.594;9.294;2023-02-15T05:05:01;100960.78;;;1.37;76.39
18819;BME280;9537;45.594;9.294;2023-02-15T05:06:03;100965.09;;;1.38;76.51
18819;BME280;9537;45.594;9.294;2023-02-15T05:07:05;100960.88;;;1.35;75.99
18819;BME280;9537;45.594;9.294;2023-02-15T05:08:06;100963.56;;;1.34;75.92
18819;BME280;9537;45.594;9.294;2023-02-15T05:09:10;100966.09;;;1.35;76.20
18819;BME280;9537;45.594;9.294;2023-02-15T05:10:11;100968.53;;;1.39;76.03
18819;BME280;9537;45.594;9.294;2023-02-15T05:11:13;100964.94;;;1.41;76.07
18819;BME280;9537;45.594;9.294;2023-02-15T05:12:14;100966.75;;;1.39;76.58
18819;BME280;9537;45.594;9.294;2023-02-15T05:13:16;100958.03;;;1.40;76.77
18819;BME280;9537;45.594;9.294;2023-02-15T05:14:17;100958.78;;;1.42;76.88
18819;BME280;9537;45.594;9.294;2023-02-15T05:15:19;100953.59;;;1.42;77.70
18819;BME280;9537;45.594;9.294;2023-02-15T05:16:20;100958.63;;;1.45;76.78
18819;BME280;9537;45.594;9.294;2023-02-15T05:17:22;100953.34;;;1.47;77.47
18819;BME280;9537;45.594;9.294;2023-02-15T05:18:24;100955.03;;;1.48;77.17
18819;BME280;9537;45.594;9.294;2023-02-15T05:19:26;100952.41;;;1.48;76.72
18819;BME280;9537;45.594;9.294;2023-02-15T05:20:27;100950.56;;;1.50;77.00
18819;BME280;9537;45.594;9.294;2023-02-15T05:21:29;100950.41;;;1.53;77.16
18819;BME280;9537;45.594;9.294;2023-02-15T05:22:30;100950.41;;;1.53;77.18
18819;BME280;9537;45.594;9.294;2023-02-15T05:23:32;100940.75;;;1.55;77.19
18819;BME280;9537;45.594;9.294;2023-02-15T05:24:34;100943.25;;;1.56;76.88
18819;BME280;9537;45.594;9.294;2023-02-15T05:25:53;100951.34;;;1.52;76.14
18819;BME280;9537;45.594;9.294;2023-02-15T05:27:13;100949.38;;;1.40;76.44
18819;BME280;9537;45.594;9.294;2023-02-15T05:28:33;100957.44;;;1.35;76.18
18819;BME280;9537;45.594;9.294;2023-02-15T05:29:35;100955.53;;;1.39;76.27
18819;BME280;9537;45.594;9.294;2023-02-15T05:30:36;100954.75;;;1.37;75.51
18819;BME280;9537;45.594;9.294;2023-02-15T05:31:40;100951.31;;;1.36;75.12
18819;BME280;9537;45.594;9.294;2023-02-15T05:32:41;100959.06;;;1.38;75.73
18819;BME280;9537;45.594;9.294;2023-02-15T05:33:44;100957.34;;;1.37;75.69
18819;BME280;9537;45.594;9.294;2023-02-15T05:34:45;100960.72;;;1.39;76.13
18819;BME280;9537;45.594;9.294;2023-02-15T05:35:47;100958.53;;;1.31;76.13
18819;BME280;9537;45.594;9.294;2023-02-15T05:36:48;100961.22;;;1.29;75.78
18819;BME280;9537;45.594;9.294;2023-02-15T05:37:50;100961.38;;;1.26;75.29
18819;BME280;9537;45.594;9.294;2023-02-15T05:38:51;100960.84;;;1.20;75.53
18819;BME280;9537;45.594;9.294;2023-02-15T05:39:54;100959.94;;;1.21;75.57
18819;BME280;9537;45.594;9.294;2023-02-15T05:40:55;100959.94;;;1.21;75.54
18819;BME280;9537;45.594;9.294;2023-02-15T05:41:58;100960.09;;;1.18;76.62
18819;BME280;9537;45.594;9.294;2023-02-15T05:42:59;100960.00;;;1.19;76.33
18819;BME280;9537;45.594;9.294;2023-02-15T05:44:01;100958.34;;;1.18;76.84
18819;BME280;9537;45.594;9.294;2023-02-15T05:45:03;100953.81;;;1.22;76.69
18819;BME280;9537;45.594;9.294;2023-02-15T05:46:06;100959.09;;;1.20;75.97
18819;BME280;9537;45.594;9.294;2023-02-15T05:47:07;100955.75;;;1.18;77.07
18819;BME280;9537;45.594;9.294;2023-02-15T05:48:09;100959.19;;;1.19;76.70
18819;BME280;9537;45.594;9.294;2023-02-15T05:49:10;100955.97;;;1.13;76.71
18819;BME280;9537;45.594;9.294;2023-02-15T05:50:12;100962.16;;;1.11;76.79
18819;BME280;9537;45.594;9.294;2023-02-15T05:51:13;100964.94;;;1.08;77.22
18819;BME280;9537;45.594;9.294;2023-02-15T05:52:16;100973.69;;;1.07;77.39